Time;durP1;ratioP1;P1;durP2;ratioP2;P2;SDS_P1;SDS_P2;PMS_P1;PMS_P2;Temp;Humidity;BMP_temperature;BMP_pressure;BME280_temperature;BME280_humidity;BME280_pressure;Samples;Min_cycle;Max_cycle;Signal;HPM_P1;HPM_P2
2022/09/04 00:01:53;;;;;;;5.78;5.05;;;14.90;99.90;;;;;;5033363;28;20021;-76
2022/09/04 00:04:19;;;;;;;;;;;14.80;99.90;;;;;;5021649;28;20109;-74
2022/09/04 00:07:02;;;;;;;6.43;5.00;;;14.80;99.90;;;;;;5013344;28;19948;-74
2022/09/04 00:09:40;;;;;;;7.63;5.50;;;14.90;99.90;;;;;;5010848;28;20030;-75
2022/09/04 00:12:08;;;;;;;7.15;5.22;;;14.70;99.90;;;;;;5026651;28;20037;-75
2022/09/04 00:14:47;;;;;;;4.55;4.15;;;14.50;99.90;;;;;;5024202;28;20032;-73
2022/09/04 00:17:27;;;;;;;5.78;4.40;;;14.50;99.90;;;;;;5000662;28;20026;-73
2022/09/04 00:20:02;;;;;;;4.10;3.70;;;14.50;99.90;;;;;;5009108;28;20018;-73
2022/09/04 00:22:46;;;;;;;5.80;4.30;;;14.60;99.90;;;;;;5012005;28;20511;-74
2022/09/04 00:25:24;;;;;;;4.95;3.95;;;14.70;99.90;;;;;;5024962;28;20503;-73
2022/09/04 00:28:00;;;;;;;8.25;4.07;;;14.70;99.90;;;;;;5027425;28;20578;-74
2022/09/04 00:30:26;;;;;;;4.72;4.18;;;14.60;99.90;;;;;;5023711;28;20120;-75
2022/09/04 00:32:53;;;;;;;7.68;4.88;;;14.50;99.90;;;;;;5024656;28;20391;-75
2022/09/04 00:35:30;;;;;;;4.82;4.35;;;14.50;99.90;;;;;;5019799;28;20032;-74
2022/09/04 00:37:59;;;;;;;10.25;6.38;;;14.00;99.90;;;;;;5026181;28;20025;-74
2022/09/04 00:40:29;;;;;;;38.33;6.07;;;13.70;99.90;;;;;;5024170;28;20476;-76
2022/09/04 00:43:28;;;;;;;39.38;6.57;;;13.60;99.90;;;;;;5014270;28;20435;-76
2022/09/04 00:46:08;;;;;;;109.10;10.15;;;13.50;99.90;;;;;;5014411;28;20092;-74
2022/09/04 00:49:02;;;;;;;127.03;9.48;;;13.40;99.90;;;;;;5020967;28;20022;-75
2022/09/04 00:51:55;;;;;;;25.33;6.53;;;13.40;99.90;;;;;;5009945;28;20022;-75
2022/09/04 00:54:29;;;;;;;10.35;5.68;;;13.40;99.90;;;;;;5012655;28;20105;-76
2022/09/04 00:57:23;;;;;;;6.53;5.82;;;13.50;99.90;;;;;;5018955;28;20037;-74
2022/09/04 01:00:00;;;;;;;24.98;9.45;;;13.60;99.90;;;;;;5013924;28;20115;-75
2022/09/04 01:02:54;;;;;;;315.40;17.65;;;13.50;99.90;;;;;;5019346;28;20025;-74
2022/09/04 01:05:39;;;;;;;9.20;6.07;;;13.40;99.90;;;;;;5017799;28;20037;-74
2022/09/04 01:08:33;;;;;;;63.13;9.57;;;13.40;99.90;;;;;;5019354;28;20499;-76
2022/09/04 01:11:07;;;;;;;6.40;5.80;;;13.50;99.90;;;;;;5010836;28;20017;-77
2022/09/04 01:13:51;;;;;;;6.13;5.57;;;13.60;99.90;;;;;;5013990;28;20026;-77
2022/09/04 01:16:33;;;;;;;5.70;5.20;;;13.70;99.90;;;;;;5026560;28;20022;-77
2022/09/04 01:19:40;;;;;;;19.23;7.35;;;13.80;99.90;;;;;;5000937;28;20029;-77
2022/09/04 01:22:45;;;;;;;33.47;7.15;;;13.80;99.90;;;;;;4996483;28;20038;-76
2022/09/04 01:25:31;;;;;;;7.25;6.47;;;13.90;99.90;;;;;;4994512;28;20034;-76
2022/09/04 01:28:12;;;;;;;20.92;6.97;;;13.90;99.90;;;;;;5012661;28;20038;-76
2022/09/04 01:30:58;;;;;;;10.10;6.10;;;13.80;99.90;;;;;;5021519;28;20034;-76
2022/09/04 01:33:40;;;;;;;5.80;5.20;;;13.80;99.90;;;;;;5018461;28;20052;-76
2022/09/04 01:36:25;;;;;;;6.25;5.32;;;13.90;99.90;;;;;;5027655;28;20033;-74
2022/09/04 01:38:54;;;;;;;6.32;5.68;;;13.80;99.90;;;;;;5020171;28;20515;-73
2022/09/04 01:41:50;;;;;;;5.35;4.85;;;13.80;99.90;;;;;;5006774;28;20072;-74
2022/09/04 01:44:15;;;;;;;5.32;4.82;;;13.90;99.90;;;;;;4970594;28;20040;-76
2022/09/04 01:47:00;;;;;;;5.85;5.28;;;14.10;99.90;;;;;;5022134;28;20513;-74
2022/09/04 01:49:45;;;;;;;5.43;4.93;;;14.10;99.90;;;;;;5011607;28;20034;-76
2022/09/04 01:52:36;;;;;;;6.28;5.68;;;14.10;99.90;;;;;;5026583;28;20036;-76
2022/09/04 01:55:25;;;;;;;5.57;5.05;;;14.20;99.90;;;;;;5020147;28;20172;-76
2022/09/04 01:58:13;;;;;;;5.47;4.97;;;14.20;99.90;;;;;;4999061;28;20392;-77
2022/09/04 02:01:13;;;;;;;7.25;5.80;;;14.20;99.90;;;;;;5008848;28;20475;-77
2022/09/04 02:04:06;;;;;;;8.25;6.28;;;14.10;99.90;;;;;;5010304;28;20064;-75
2022/09/04 02:06:58;;;;;;;9.27;7.30;;;13.90;99.90;;;;;;5010510;28;20030;-74
2022/09/04 02:09:33;;;;;;;6.93;6.22;;;13.80;99.90;;;;;;4973299;28;20116;-74
2022/09/04 02:12:15;;;;;;;7.38;6.65;;;13.90;99.90;;;;;;5024990;28;20104;-74
2022/09/04 02:15:02;;;;;;;6.47;5.88;;;13.80;99.90;;;;;;5025005;28;20053;-77
2022/09/04 02:17:42;;;;;;;7.18;6.47;;;13.90;99.90;;;;;;5010377;28;20068;-77
2022/09/04 02:20:26;;;;;;;8.77;6.80;;;13.90;99.90;;;;;;5014644;28;20444;-77
2022/09/04 02:23:04;;;;;;;7.38;6.43;;;13.80;99.90;;;;;;5022890;28;20422;-77
2022/09/04 02:25:47;;;;;;;7.47;6.68;;;13.80;99.90;;;;;;5025215;28;20438;-77
2022/09/04 02:28:32;;;;;;;6.75;6.15;;;13.70;99.90;;;;;;5016517;28;20480;-77
2022/09/04 02:31:08;;;;;;;8.00;6.25;;;13.90;99.90;;;;;;5020509;28;20026;-77
2022/09/04 02:34:03;;;;;;;7.28;6.57;;;14.00;99.90;;;;;;5012828;28;20033;-78
2022/09/04 02:36:53;;;;;;;7.00;6.22;;;13.90;99.90;;;;;;4941186;28;20049;-76
2022/09/04 02:39:33;;;;;;;6.53;5.90;;;13.90;99.90;;;;;;5006758;28;20121;-75
2022/09/04 02:42:18;;;;;;;6.63;5.65;;;14.00;99.90;;;;;;5010126;28;20030;-75
2022/09/04 02:45:11;;;;;;;7.20;6.38;;;14.00;99.90;;;;;;5011409;28;20080;-74
2022/09/04 02:48:07;;;;;;;6.80;6.13;;;14.00;99.90;;;;;;5013073;28;20116;-74
2022/09/04 02:51:02;;;;;;;7.05;5.50;;;13.60;99.90;;;;;;5010095;28;20075;-73
2022/09/04 02:54:00;;;;;;;6.57;5.88;;;13.80;99.90;;;;;;5008458;28;20026;-73
2022/09/04 02:56:46;;;;;;;7.07;6.38;;;13.90;99.90;;;;;;5000819;28;20029;-74
2022/09/04 02:59:51;;;;;;;7.82;6.95;;;13.70;99.90;;;;;;5014751;28;20046;-74
2022/09/04 03:02:49;;;;;;;9.60;8.23;;;13.60;99.90;;;;;;4959286;28;20115;-75
2022/09/04 03:05:18;;;;;;;6.95;6.25;;;13.30;99.90;;;;;;5001216;28;20040;-75
2022/09/04 03:08:09;;;;;;;6.65;5.95;;;12.90;99.90;;;;;;5014426;28;20021;-72
2022/09/04 03:10:47;;;;;;;6.57;5.97;;;13.10;99.90;;;;;;4993157;28;20034;-72
2022/09/04 03:13:44;;;;;;;7.32;6.45;;;13.20;99.90;;;;;;5013150;28;20606;-75
2022/09/04 03:16:41;;;;;;;12.02;5.60;;;13.30;99.90;;;;;;5016583;28;20033;-75
2022/09/04 03:19:26;;;;;;;7.63;5.75;;;13.40;99.90;;;;;;4982828;28;20491;-75
2022/09/04 03:21:59;;;;;;;6.05;5.45;;;13.40;99.90;;;;;;5033105;28;20025;-75
2022/09/04 03:24:29;;;;;;;6.15;5.55;;;13.30;99.90;;;;;;5032716;28;20088;-74
2022/09/04 03:27:01;;;;;;;7.25;6.55;;;13.40;99.90;;;;;;5032658;28;20390;-74
2022/09/04 03:29:33;;;;;;;6.63;6.03;;;13.50;99.90;;;;;;5032780;28;20083;-76
2022/09/04 03:32:25;;;;;;;5.70;5.20;;;13.40;99.90;;;;;;5024744;28;20030;-74
2022/09/04 03:35:15;;;;;;;7.45;5.68;;;13.50;99.90;;;;;;5023667;28;20454;-75
2022/09/04 03:37:49;;;;;;;5.93;5.35;;;13.40;99.90;;;;;;5027241;28;20032;-75
2022/09/04 03:40:40;;;;;;;8.20;7.40;;;13.60;99.90;;;;;;5014138;28;20488;-75
2022/09/04 03:43:29;;;;;;;6.95;6.18;;;13.60;99.90;;;;;;5012655;28;20120;-75
2022/09/04 03:46:16;;;;;;;8.05;6.90;;;13.60;99.90;;;;;;5011188;28;20026;-75
2022/09/04 03:49:01;;;;;;;6.60;6.00;;;13.60;99.90;;;;;;5027154;28;20056;-75
2022/09/04 03:51:47;;;;;;;6.60;5.95;;;13.50;99.90;;;;;;5011328;28;20402;-75
2022/09/04 03:54:31;;;;;;;6.53;5.93;;;13.50;99.90;;;;;;5033519;28;20096;-75
2022/09/04 03:57:11;;;;;;;7.40;6.60;;;13.40;99.90;;;;;;5016679;28;20037;-74
2022/09/04 04:00:02;;;;;;;6.93;6.20;;;13.40;99.90;;;;;;5004130;28;20030;-76
2022/09/04 04:02:57;;;;;;;6.40;5.75;;;13.30;99.90;;;;;;5013907;28;20067;-76
2022/09/04 04:05:38;;;;;;;7.30;6.60;;;13.60;99.90;;;;;;5003657;28;20538;-77
2022/09/04 04:08:27;;;;;;;8.68;6.57;;;13.50;99.90;;;;;;5018709;28;20034;-77
2022/09/04 04:11:41;;;;;;;9.77;6.57;;;13.50;99.90;;;;;;5002999;28;20065;-77
2022/09/04 04:14:37;;;;;;;8.70;7.80;;;13.50;99.90;;;;;;5013280;28;20037;-77
2022/09/04 04:17:22;;;;;;;14.82;13.23;;;13.50;99.90;;;;;;5012460;28;20108;-77
2022/09/04 04:20:04;;;;;;;18.70;13.98;;;13.40;99.90;;;;;;5012879;28;20029;-77
2022/09/04 04:23:05;;;;;;;10.73;9.63;;;13.20;99.90;;;;;;5021147;28;20025;-77
2022/09/04 04:25:34;;;;;;;9.23;8.02;;;12.80;99.90;;;;;;5037142;28;20045;-77
2022/09/04 04:28:29;;;;;;;6.82;6.22;;;12.60;99.90;;;;;;5035419;28;20025;-77
2022/09/04 04:31:19;;;;;;;11.32;7.78;;;12.40;99.90;;;;;;5034339;28;20041;-76
2022/09/04 04:34:19;;;;;;;68.95;8.98;;;12.10;99.90;;;;;;5022913;28;20492;-76
2022/09/04 04:36:53;;;;;;;235.48;17.05;;;12.10;99.90;;;;;;5009508;28;20033;-76
2022/09/04 04:39:36;;;;;;;43.28;8.35;;;12.10;99.90;;;;;;5032127;28;20025;-77
2022/09/04 04:42:19;;;;;;;25.15;7.13;;;12.10;99.90;;;;;;5032019;28;20483;-76
2022/09/04 04:48:08;;;;;;;6.95;6.35;;;12.30;99.90;;;;;;5013944;28;20097;-77
2022/09/04 04:51:02;;;;;;;5.93;5.32;;;12.40;99.90;;;;;;5014906;28;20037;-76
2022/09/04 04:53:54;;;;;;;5.60;4.80;;;12.60;99.90;;;;;;5013565;28;20021;-75
2022/09/04 04:56:25;;;;;;;5.95;5.18;;;12.70;99.90;;;;;;4999763;28;20033;-74
2022/09/04 04:59:08;;;;;;;6.97;6.38;;;12.80;99.90;;;;;;5023972;28;20045;-75
2022/09/04 05:01:42;;;;;;;7.85;7.05;;;12.70;99.90;;;;;;5011169;28;20030;-75
2022/09/04 05:04:16;;;;;;;8.15;5.93;;;12.90;99.90;;;;;;4997881;28;20018;-75
2022/09/04 05:06:48;;;;;;;6.90;6.10;;;12.70;99.90;;;;;;5012356;28;20044;-74
2022/09/04 05:09:24;;;;;;;8.40;7.60;;;12.80;99.90;;;;;;5014329;28;20100;-74
2022/09/04 05:11:56;;;;;;;;;;;12.80;99.90;;;;;;5014977;28;20108;-75
2022/09/04 05:14:49;;;;;;;8.23;7.15;;;12.90;99.90;;;;;;5020498;28;19906;-75
2022/09/04 05:17:21;;;;;;;8.63;7.20;;;13.00;99.90;;;;;;5006604;28;20030;-76
2022/09/04 05:20:12;;;;;;;6.95;6.30;;;13.00;99.90;;;;;;5012909;28;20022;-77
2022/09/04 05:22:46;;;;;;;6.75;6.15;;;13.00;99.90;;;;;;5020907;28;20364;-77
2022/09/04 05:25:11;;;;;;;7.93;6.28;;;13.30;99.90;;;;;;5011895;28;20164;-76
2022/09/04 05:28:01;;;;;;;7.22;5.63;;;13.20;99.90;;;;;;5029185;28;20057;-74
2022/09/04 05:30:49;;;;;;;6.03;5.43;;;13.30;99.90;;;;;;5001717;28;20403;-76
2022/09/04 05:33:40;;;;;;;10.60;9.43;;;13.50;99.90;;;;;;5024067;28;20036;-76
2022/09/04 05:36:31;;;;;;;8.70;7.90;;;13.70;99.90;;;;;;5011982;28;20026;-76
2022/09/04 05:39:12;;;;;;;8.13;7.35;;;13.80;99.90;;;;;;5023348;28;20037;-76
2022/09/04 05:41:56;;;;;;;8.00;7.22;;;14.10;99.90;;;;;;5013510;28;20030;-76
2022/09/04 05:44:36;;;;;;;9.38;8.48;;;13.90;99.90;;;;;;5010433;28;20026;-76
2022/09/04 05:47:21;;;;;;;9.60;8.25;;;14.10;99.90;;;;;;5023314;28;20391;-76
2022/09/04 05:50:24;;;;;;;8.93;8.02;;;14.10;99.90;;;;;;5000970;28;20444;-76
2022/09/04 05:53:25;;;;;;;10.95;9.50;;;14.30;99.90;;;;;;4970405;28;20031;-73
2022/09/04 05:55:51;;;;;;;11.50;9.68;;;14.30;99.90;;;;;;5016541;28;20026;-76
2022/09/04 05:58:47;;;;;;;11.73;9.75;;;14.30;99.90;;;;;;5017961;28;20040;-76
2022/09/04 06:01:38;;;;;;;11.88;9.98;;;14.30;99.90;;;;;;5001123;28;20045;-76
2022/09/04 06:04:30;;;;;;;14.85;10.30;;;14.40;99.90;;;;;;5008430;28;20029;-76
2022/09/04 06:07:21;;;;;;;18.27;13.35;;;14.60;99.90;;;;;;4996396;28;20040;-75
2022/09/04 06:10:11;;;;;;;25.38;14.50;;;14.60;99.90;;;;;;5008865;28;20395;-76
2022/09/04 06:12:40;;;;;;;17.40;12.30;;;14.60;99.90;;;;;;5010160;28;20034;-76
2022/09/04 06:15:32;;;;;;;104.05;21.02;;;14.60;99.90;;;;;;5010727;28;20096;-75
2022/09/04 06:18:03;;;;;;;50.40;14.38;;;14.40;99.90;;;;;;5023133;28;20682;-76
2022/09/04 06:20:44;;;;;;;64.40;15.50;;;14.20;99.90;;;;;;4997196;28;20022;-76
2022/09/04 06:23:36;;;;;;;121.03;20.90;;;14.10;99.90;;;;;;5012527;28;20017;-76
2022/09/04 06:26:11;;;;;;;113.00;16.00;;;14.30;99.90;;;;;;5015788;28;20443;-75
2022/09/04 06:29:01;;;;;;;51.22;14.65;;;14.50;99.90;;;;;;5001209;28;20037;-76
2022/09/04 06:31:48;;;;;;;58.08;14.27;;;14.30;99.90;;;;;;5023948;28;20044;-76
2022/09/04 06:34:28;;;;;;;56.40;14.82;;;14.50;99.90;;;;;;5026608;28;20552;-76
2022/09/04 06:37:25;;;;;;;78.93;17.48;;;14.50;99.90;;;;;;5033636;28;20025;-76
2022/09/04 06:40:25;;;;;;;135.40;20.25;;;14.70;99.90;;;;;;4958957;28;20595;-75
2022/09/04 06:43:15;;;;;;;99.07;22.30;;;14.70;99.90;;;;;;5002816;28;20533;-75
2022/09/04 06:45:46;;;;;;;78.90;20.25;;;14.60;99.90;;;;;;5018735;28;20030;-76
2022/09/04 06:48:18;;;;;;;170.98;27.55;;;14.90;99.90;;;;;;5013554;28;20029;-75
2022/09/04 06:51:06;;;;;;;153.52;23.98;;;14.70;99.90;;;;;;5028220;28;20116;-75
2022/09/04 06:54:10;;;;;;;227.52;28.60;;;14.70;99.90;;;;;;5022916;28;20046;-75
2022/09/04 06:56:59;;;;;;;246.40;28.90;;;14.70;99.90;;;;;;5015006;28;20101;-75
2022/09/04 06:59:40;;;;;;;80.75;20.23;;;14.80;99.90;;;;;;4972510;28;20120;-75
2022/09/04 07:02:24;;;;;;;60.15;19.85;;;14.90;99.90;;;;;;5021265;28;20029;-75
2022/09/04 07:05:26;;;;;;;70.60;19.63;;;15.30;99.90;;;;;;5024712;28;20026;-75
2022/09/04 07:08:11;;;;;;;91.35;21.15;;;15.30;99.90;;;;;;4994980;28;20113;-76
2022/09/04 07:11:11;;;;;;;77.82;21.80;;;15.00;99.90;;;;;;5013853;28;20700;-75
2022/09/04 07:14:15;;;;;;;253.00;28.88;;;15.10;99.90;;;;;;5021178;28;20030;-75
2022/09/04 07:17:18;;;;;;;48.35;21.40;;;15.10;99.90;;;;;;5013142;28;20033;-75
2022/09/04 07:20:06;;;;;;;42.03;21.38;;;15.30;99.90;;;;;;5025324;28;20026;-74
2022/09/04 07:23:06;;;;;;;74.93;21.55;;;15.40;99.90;;;;;;5013140;28;20120;-75
2022/09/04 07:25:38;;;;;;;85.82;22.85;;;15.60;99.90;;;;;;5010678;28;20029;-75
2022/09/04 07:28:05;;;;;;;51.28;21.00;;;15.60;99.90;;;;;;5014448;28;20034;-74
2022/09/04 07:30:43;;;;;;;46.53;22.23;;;15.90;99.90;;;;;;5011685;28;20097;-73
2022/09/04 07:33:20;;;;;;;61.45;22.13;;;16.00;99.90;;;;;;5015366;28;20025;-74
2022/09/04 07:36:06;;;;;;;51.92;25.75;;;16.00;99.90;;;;;;5013907;28;20243;-78
2022/09/04 07:38:35;;;;;;;39.38;25.38;;;16.00;99.90;;;;;;5022707;28;20407;-77
2022/09/04 07:41:20;;;;;;;52.70;28.00;;;15.80;99.90;;;;;;5013178;28;20026;-75
2022/09/04 07:44:07;;;;;;;33.30;23.55;;;15.70;99.90;;;;;;5021403;28;20014;-76
2022/09/04 07:46:48;;;;;;;41.28;26.00;;;15.90;99.90;;;;;;5010033;28;20018;-76
2022/09/04 07:49:25;;;;;;;35.40;26.00;;;16.00;99.90;;;;;;5027493;28;20034;-76
2022/09/04 07:51:58;;;;;;;41.15;28.98;;;16.00;99.90;;;;;;5028574;28;20018;-76
2022/09/04 07:54:46;;;;;;;43.15;28.77;;;16.20;99.90;;;;;;5004473;28;20610;-75
2022/09/04 07:57:40;;;;;;;38.30;27.02;;;16.20;99.90;;;;;;5014421;28;20048;-75
2022/09/04 08:00:12;;;;;;;33.30;24.77;;;16.20;99.90;;;;;;5025691;28;20357;-76
2022/09/04 08:02:43;;;;;;;29.33;22.73;;;16.40;99.90;;;;;;5024847;28;20022;-76
2022/09/04 08:05:20;;;;;;;31.02;24.08;;;16.60;99.90;;;;;;5021098;28;20053;-75
2022/09/04 08:07:50;;;;;;;27.48;21.63;;;17.00;99.90;;;;;;5031997;28;20029;-76
2022/09/04 08:10:52;;;;;;;23.33;19.48;;;17.30;99.90;;;;;;5020025;28;20036;-76
2022/09/04 08:13:46;;;;;;;30.73;24.25;;;17.20;99.90;;;;;;5018398;28;20391;-76
2022/09/04 08:17:01;;;;;;;31.48;23.73;;;16.80;99.90;;;;;;5012342;28;20044;-75
2022/09/04 08:20:11;;;;;;;26.95;21.02;;;17.10;99.90;;;;;;5016922;28;20616;-76
2022/09/04 08:22:51;;;;;;;26.33;18.40;;;17.30;99.90;;;;;;5033161;28;20032;-76
2022/09/04 08:25:45;;;;;;;21.98;18.85;;;17.50;99.90;;;;;;5020890;28;20088;-76
2022/09/04 08:28:25;;;;;;;19.45;16.80;;;17.50;99.90;;;;;;4993616;28;20085;-75
2022/09/04 08:31:06;;;;;;;15.93;14.27;;;17.50;99.90;;;;;;5013393;28;20120;-77
2022/09/04 08:34:14;;;;;;;18.90;16.33;;;17.60;99.90;;;;;;5008335;28;20017;-77
2022/09/04 08:37:15;;;;;;;17.00;13.73;;;17.50;99.90;;;;;;5019558;28;20091;-77
2022/09/04 08:40:10;;;;;;;15.05;13.45;;;17.70;99.90;;;;;;5016812;28;20021;-78
2022/09/04 08:42:50;;;;;;;13.65;12.05;;;17.70;99.90;;;;;;5014702;28;20051;-77
2022/09/04 08:45:44;;;;;;;12.55;11.27;;;18.00;99.90;;;;;;5025198;28;20483;-77
2022/09/04 08:48:45;;;;;;;12.80;10.55;;;18.10;99.90;;;;;;5005085;28;20495;-77
2022/09/04 08:51:33;;;;;;;12.55;11.27;;;18.30;99.90;;;;;;5013434;28;20026;-78
2022/09/04 08:54:32;;;;;;;12.20;10.80;;;18.40;99.90;;;;;;4975630;28;20129;-77
2022/09/04 08:57:14;;;;;;;12.90;10.90;;;18.30;99.90;;;;;;5018806;28;20025;-77
2022/09/04 09:00:16;;;;;;;11.20;9.88;;;18.30;99.90;;;;;;5010247;28;20018;-77
2022/09/04 09:02:56;;;;;;;10.38;9.27;;;18.50;99.90;;;;;;5008055;28;20053;-76
2022/09/04 09:06:09;;;;;;;9.88;8.52;;;18.80;99.90;;;;;;5037627;28;20479;-77
2022/09/04 09:09:05;;;;;;;10.80;9.10;;;18.80;99.90;;;;;;5019092;28;20088;-77
2022/09/04 09:12:08;;;;;;;9.98;8.82;;;19.00;99.90;;;;;;5003101;28;20053;-77
2022/09/04 09:15:04;;;;;;;11.40;9.50;;;19.00;99.90;;;;;;5007682;28;20039;-77
2022/09/04 09:17:43;;;;;;;12.80;10.00;;;19.10;99.90;;;;;;5008686;28;20507;-77
2022/09/04 09:20:50;;;;;;;12.45;10.15;;;19.30;99.90;;;;;;5024402;28;20084;-77
2022/09/04 09:23:40;;;;;;;13.85;10.93;;;19.30;99.90;;;;;;4932341;29;20066;-77
2022/09/04 09:26:17;;;;;;;12.23;9.57;;;19.20;99.90;;;;;;5019676;28;20068;-77
2022/09/04 09:28:59;;;;;;;10.18;8.75;;;19.20;99.90;;;;;;5011283;28;20512;-76
2022/09/04 09:31:44;;;;;;;9.38;8.43;;;19.30;99.90;;;;;;5024412;28;20556;-77
2022/09/04 09:34:50;;;;;;;10.93;8.25;;;19.50;99.90;;;;;;5023688;28;20025;-77
2022/09/04 09:37:43;;;;;;;10.82;9.40;;;19.80;99.90;;;;;;4931414;29;20039;-76
2022/09/04 09:40:56;;;;;;;12.35;10.57;;;20.10;99.90;;;;;;4931201;29;20413;-77
2022/09/04 09:43:28;;;;;;;9.10;8.20;;;19.90;99.90;;;;;;4992350;28;20069;-77
2022/09/04 09:46:20;;;;;;;10.65;8.40;;;20.10;99.90;;;;;;5025082;28;20080;-77
2022/09/04 09:49:07;;;;;;;9.52;8.55;;;20.10;99.90;;;;;;5006666;28;20025;-77
2022/09/04 09:51:42;;;;;;;12.70;9.18;;;20.10;99.90;;;;;;5007119;28;20030;-76
2022/09/04 09:54:39;;;;;;;10.52;9.05;;;20.10;99.90;;;;;;5007338;28;20037;-77
2022/09/04 09:57:43;;;;;;;10.82;9.43;;;20.30;99.90;;;;;;5005421;28;20026;-77
2022/09/04 10:00:14;;;;;;;11.43;10.23;;;20.40;99.90;;;;;;5022377;28;20116;-77
2022/09/04 10:03:01;;;;;;;9.80;8.60;;;20.30;99.90;;;;;;5016272;28;20053;-76
2022/09/04 10:05:45;;;;;;;13.13;9.25;;;20.30;99.90;;;;;;5016961;28;20045;-77
2022/09/04 10:08:34;;;;;;;10.75;8.32;;;20.50;99.90;;;;;;5022534;28;20026;-77
2022/09/04 10:11:00;;;;;;;8.93;8.02;;;20.60;99.90;;;;;;5015683;28;20040;-77
2022/09/04 10:13:44;;;;;;;9.63;8.63;;;20.80;99.90;;;;;;5022262;28;20415;-77
2022/09/04 10:16:37;;;;;;;9.13;8.10;;;20.90;99.90;;;;;;5022607;28;20387;-77
2022/09/04 10:19:28;;;;;;;13.27;11.88;;;20.80;99.90;;;;;;5012819;28;20139;-77
2022/09/04 10:22:33;;;;;;;7.45;6.70;;;21.00;99.90;;;;;;5022137;28;20391;-77
2022/09/04 10:25:24;;;;;;;8.52;7.35;;;21.10;99.90;;;;;;5016279;28;20041;-78
2022/09/04 10:27:58;;;;;;;6.60;6.00;;;21.00;99.90;;;;;;5016703;28;20026;-77
2022/09/04 10:30:42;;;;;;;8.50;7.32;;;21.20;99.90;;;;;;5025102;28;20026;-77
2022/09/04 10:33:29;;;;;;;7.00;5.20;;;21.40;99.90;;;;;;5012047;28;20018;-77
2022/09/04 10:36:26;;;;;;;5.05;4.57;;;21.60;99.90;;;;;;5020024;28;20488;-77
2022/09/04 10:41:58;;;;;;;4.60;3.88;;;21.60;99.90;;;;;;5017032;28;19909;-77
2022/09/04 10:44:31;;;;;;;4.55;4.13;;;21.70;99.90;;;;;;5025475;28;20078;-77
2022/09/04 10:47:34;;;;;;;4.68;4.20;;;21.60;99.90;;;;;;5024775;28;20356;-77
2022/09/04 10:50:10;;;;;;;4.15;3.75;;;21.60;99.90;;;;;;5012751;28;20060;-77
2022/09/04 10:53:13;;;;;;;3.83;3.40;;;21.90;99.90;;;;;;5015346;28;20117;-77
2022/09/04 10:56:00;;;;;;;3.25;2.95;;;21.90;99.90;;;;;;5016096;28;20045;-77
2022/09/04 10:58:52;;;;;;;4.28;3.72;;;21.90;99.90;;;;;;5021722;28;20025;-77
2022/09/04 11:01:54;;;;;;;3.95;3.22;;;22.00;99.90;;;;;;5003406;28;20037;-77
2022/09/04 11:04:51;;;;;;;4.18;2.88;;;22.10;99.90;;;;;;5017367;28;20017;-77
2022/09/04 11:07:57;;;;;;;2.47;2.28;;;22.60;99.90;;;;;;5016764;28;20045;-77
2022/09/04 11:10:47;;;;;;;2.25;1.75;;;22.70;99.90;;;;;;5025427;28;20029;-76
2022/09/04 11:13:22;;;;;;;2.10;1.90;;;22.80;99.90;;;;;;5012941;28;20076;-76
2022/09/04 11:16:31;;;;;;;1.77;1.67;;;22.90;99.90;;;;;;5012822;28;20033;-76
2022/09/04 11:19:09;;;;;;;2.45;1.83;;;22.80;99.90;;;;;;5012360;28;20193;-77
2022/09/04 11:21:37;;;;;;;2.45;1.92;;;23.10;99.90;;;;;;5015114;28;20025;-76
2022/09/04 11:24:37;;;;;;;2.58;1.77;;;23.10;99.90;;;;;;5015344;28;20030;-76
2022/09/04 11:27:09;;;;;;;2.10;1.80;;;23.20;99.90;;;;;;5007490;28;20055;-76
2022/09/04 11:29:53;;;;;;;1.70;1.60;;;23.00;99.90;;;;;;5030619;22;20057;-73
2022/09/04 11:32:40;;;;;;;1.60;1.50;;;23.10;99.90;;;;;;5002114;28;20093;-73
2022/09/04 11:35:18;;;;;;;1.88;1.60;;;23.10;99.90;;;;;;5008066;28;20037;-72
2022/09/04 11:38:05;;;;;;;2.78;1.60;;;23.20;99.90;;;;;;5013665;28;20471;-72
2022/09/04 11:40:45;;;;;;;2.20;2.00;;;23.40;99.90;;;;;;5002468;28;20033;-72
2022/09/04 11:43:49;;;;;;;3.05;1.60;;;23.40;99.90;;;;;;4976562;28;20142;-73
2022/09/04 11:46:46;;;;;;;2.40;1.50;;;23.50;99.90;;;;;;5001603;28;20045;-72
2022/09/04 11:49:30;;;;;;;2.53;1.70;;;23.60;99.90;;;;;;4983033;28;20116;-71
2022/09/04 11:52:14;;;;;;;2.92;1.60;;;24.00;99.90;;;;;;5003285;28;20073;-73
2022/09/04 11:55:06;;;;;;;3.25;1.60;;;23.70;99.90;;;;;;4997296;28;20499;-70
2022/09/04 11:57:35;;;;;;;2.42;1.70;;;24.30;99.90;;;;;;5003342;28;20472;-72
2022/09/04 12:00:08;;;;;;;1.80;1.70;;;24.50;99.90;;;;;;5003045;28;20026;-73
2022/09/04 12:02:42;;;;;;;2.35;1.95;;;24.70;99.90;;;;;;4992757;28;20105;-72
2022/09/04 12:05:39;;;;;;;2.92;2.00;;;24.60;99.90;;;;;;4993950;28;20030;-72
2022/09/04 12:08:23;;;;;;;1.90;1.80;;;25.00;99.90;;;;;;4993888;28;20384;-72
2022/09/04 12:11:13;;;;;;;2.22;2.03;;;24.70;99.90;;;;;;5001142;28;20026;-72
2022/09/04 12:14:10;;;;;;;2.33;2.00;;;25.30;99.90;;;;;;4991447;28;20026;-72
2022/09/04 12:17:01;;;;;;;2.25;2.05;;;25.80;99.90;;;;;;4993696;28;20022;-72
2022/09/04 12:19:52;;;;;;;2.30;2.10;;;25.80;99.90;;;;;;4993666;28;20023;-72
2022/09/04 12:22:50;;;;;;;2.50;2.10;;;26.10;99.90;;;;;;4993623;28;20023;-72
2022/09/04 12:25:27;;;;;;;2.10;2.00;;;26.20;99.90;;;;;;5000422;28;20101;-72
2022/09/04 12:28:28;;;;;;;2.40;2.05;;;26.50;99.90;;;;;;5012845;28;20439;-72
2022/09/04 12:31:12;;;;;;;2.20;2.00;;;26.70;99.90;;;;;;5011900;28;20044;-73
2022/09/04 12:34:03;;;;;;;2.00;1.90;;;26.90;99.90;;;;;;4995285;28;20037;-73
2022/09/04 12:36:59;;;;;;;2.10;2.00;;;26.90;99.90;;;;;;4995497;28;20121;-72
2022/09/04 12:39:38;;;;;;;2.00;1.85;;;27.80;99.90;;;;;;5012935;28;20526;-73
2022/09/04 12:42:35;;;;;;;2.05;1.90;;;28.00;99.90;;;;;;5012933;28;20042;-72
2022/09/04 12:45:15;;;;;;;2.30;2.10;;;27.20;99.90;;;;;;5012845;28;20033;-73
2022/09/04 12:47:57;;;;;;;2.17;1.98;;;28.50;99.90;;;;;;5012518;28;20033;-73
2022/09/04 12:50:41;;;;;;;2.17;2.00;;;28.50;99.90;;;;;;5012995;28;20040;-73
2022/09/04 12:53:54;;;;;;;2.63;1.98;;;29.10;99.90;;;;;;5012783;28;20075;-73
2022/09/04 12:56:46;;;;;;;2.17;2.00;;;28.90;99.90;;;;;;4952128;29;20465;-73
2022/09/04 12:59:30;;;;;;;3.47;1.80;;;29.90;99.90;;;;;;5012422;28;20030;-73
2022/09/04 13:02:16;;;;;;;1.60;1.50;;;29.00;99.90;;;;;;5012732;28;20375;-73
2022/09/04 13:05:23;;;;;;;2.30;2.10;;;28.40;99.90;;;;;;5012492;28;20053;-73
2022/09/04 13:08:16;;;;;;;2.85;1.92;;;29.40;99.90;;;;;;4951578;29;20043;-73
2022/09/04 13:11:06;;;;;;;2.20;2.00;;;29.00;99.90;;;;;;4932533;29;20036;-73
2022/09/04 13:13:45;;;;;;;1.90;1.80;;;28.50;99.90;;;;;;4981392;28;20044;-73
2022/09/04 13:16:38;;;;;;;1.90;1.80;;;28.50;99.90;;;;;;5004452;28;20025;-73
2022/09/04 13:19:28;;;;;;;2.30;2.10;;;27.70;99.90;;;;;;5011935;28;20041;-73
2022/09/04 13:22:35;;;;;;;2.47;1.98;;;27.90;99.90;;;;;;4976148;28;20019;-73
2022/09/04 13:25:41;;;;;;;1.88;1.67;;;28.10;99.90;;;;;;4992512;28;20026;-73
2022/09/04 13:28:22;;;;;;;3.17;2.00;;;29.00;99.90;;;;;;4992453;28;20105;-73
2022/09/04 13:31:06;;;;;;;2.42;1.98;;;29.60;99.90;;;;;;4992889;28;20292;-73
2022/09/04 13:34:00;;;;;;;2.78;1.95;;;28.40;99.90;;;;;;5000143;28;20022;-73
2022/09/04 13:36:44;;;;;;;1.90;1.80;;;29.70;99.90;;;;;;5012059;28;20492;-73
2022/09/04 13:39:31;;;;;;;2.17;2.00;;;29.60;99.90;;;;;;5011918;28;20033;-73
2022/09/04 13:42:07;;;;;;;2.25;2.05;;;29.60;99.90;;;;;;4994121;28;20053;-73
2022/09/04 13:45:04;;;;;;;1.90;1.80;;;30.80;99.90;;;;;;5011943;28;20025;-73
2022/09/04 13:47:39;;;;;;;2.78;2.20;;;31.00;99.90;;;;;;5011567;28;20014;-73
2022/09/04 13:50:09;;;;;;;;;;;32.80;99.90;;;;;;5012259;28;20049;-73
2022/09/04 13:52:38;;;;;;;2.53;2.00;;;31.00;99.90;;;;;;5011802;28;19912;-73
2022/09/04 13:55:12;;;;;;;1.90;1.80;;;31.40;99.90;;;;;;5011852;28;20018;-73
2022/09/04 13:57:45;;;;;;;2.23;1.83;;;31.20;99.90;;;;;;5011592;28;20484;-73
2022/09/04 14:00:11;;;;;;;2.10;1.90;;;32.20;99.90;;;;;;5011791;28;20045;-73
2022/09/04 14:02:38;;;;;;;2.10;1.90;;;31.70;99.90;;;;;;5011597;28;20104;-73
2022/09/04 14:05:12;;;;;;;2.25;2.08;;;31.60;99.80;;;;;;5011713;28;20081;-73
2022/09/04 14:07:40;;;;;;;2.35;2.15;;;31.10;99.90;;;;;;5003768;28;20021;-73
2022/09/04 14:10:30;;;;;;;1.80;1.70;;;31.60;99.90;;;;;;4991991;28;20033;-73
2022/09/04 14:13:27;;;;;;;2.45;1.80;;;30.50;99.90;;;;;;4992113;28;20476;-73
2022/09/04 14:16:00;;;;;;;1.92;1.83;;;30.10;99.90;;;;;;4992112;28;20026;-73
2022/09/04 14:18:39;;;;;;;1.88;1.63;;;30.90;99.90;;;;;;4992153;28;20023;-73
2022/09/04 14:21:40;;;;;;;2.05;1.90;;;31.00;99.30;;;;;;4977203;28;20040;-73
2022/09/04 14:24:19;;;;;;;1.88;1.60;;;31.70;99.10;;;;;;4931336;28;20507;-73